Archerfield Aerodrome, Australia

3:21 PM AEST on March 30, 2017 (GMT +1000)
Oxley | | Change Station

Elev 64 ft 27.56 °S, 152.97 °E | Updated 7 seconds ago

Rain
Rain
77.5 °F
Feels Like 79 °F
N
8.1
Wind Variable Wind from NE
Gusts 9.8 mph

Today
High -- | Low -- °F
--% Chance of Precip.
Yesterday
High -- | Low -- °F
Precip. -- in
Pressure 29.62 in
Visibility 3.7 miles
Clouds Few 600 ft
Scattered Clouds 1600 ft
Mostly Cloudy 3000 ft
Heat Index 79 °F
Dew Point 76 °F
Humidity 94%
Rainfall 8.47 in
Snow Depth Not available.
5:56 AM 5:48 PM
Waxing Crescent, 6% visible
SPECI YBBN 300500Z 04020KT 6000 RA FEW006 SCT016 BKN030 26/25 Q1003 FM0500 03025G40KT 4000 RA BKN010 OVC020 FM0500 MOD/SEV TURB BLW 5000FT TEMPO 0500/0800 1500 RA OVC005
Pressure 29.62 in
Visibility 3.7 miles
Clouds Few 600 ft
Scattered Clouds 1600 ft
Mostly Cloudy 3000 ft
Heat Index 79 °F
Dew Point 76 °F
Humidity 94%
Rainfall 8.47 in
Snow Depth Not available.
5:56 AM 5:48 PM
Waxing Crescent, 6% visible
SPECI YBBN 300500Z 04020KT 6000 RA FEW006 SCT016 BKN030 26/25 Q1003 FM0500 03025G40KT 4000 RA BKN010 OVC020 FM0500 MOD/SEV TURB BLW 5000FT TEMPO 0500/0800 1500 RA OVC005

Get Severe Weather Alerts

Thanks for signing up!

Be on the lookout for a verification email in your inbox.

You'll start receiving the daily forecast at 8 AM.

×

10-Day Weather Forecast

×

Almanac

Astronomy

Mar. 30, 2017 Rise Set
Actual Time
Civil Twilight
Nautical Twilight
Astronomical Twilight
Moon
Length of Visible Light
Length of Day
Tomorrow will be .
, % of the Moon is Illuminated

Today's Extremes

Country Highs Country Lows

Community

WunderPhotos

Upload Photos

1,962,540 photos uploaded!

WunderBlog® & News

Nearby

Air Quality

  Air Quality AQ Index Pollutant
Not available.

Snow Depth

Station Depth Elevation

Earthquake Activity

City Distance Mag. Time & Date
Minimum magnitude displayed is 2.5.

Earthquake Activity

City Distance Mag. Time & Date
Minimum magnitude displayed is 2.5.

Coastal Water Temperatures

Place Temperature

Stations

Nearby Weather Stations

Station Location Temp. Windchill Dew Point Humidity Wind Precip. Elev Updated Type